createdAt,value
2018-04-27T00:00:07.746Z,65.10
2018-04-27T00:02:35.451Z,64.90
2018-04-27T00:05:03.120Z,64.90
2018-04-27T00:07:30.795Z,64.80
2018-04-27T00:09:58.485Z,64.70
2018-04-27T00:12:26.155Z,64.80
2018-04-27T00:14:53.840Z,65.20
2018-04-27T00:17:21.540Z,65.30
2018-04-27T00:19:49.987Z,65.10
2018-04-27T00:22:17.671Z,65.10
2018-04-27T00:24:45.332Z,65.20
2018-04-27T00:27:13.022Z,65.20
2018-04-27T00:29:40.716Z,65.20
2018-04-27T00:32:08.389Z,65.20
2018-04-27T00:34:36.079Z,65.20
2018-04-27T00:37:03.762Z,65.20
2018-04-27T00:39:32.209Z,65.10
2018-04-27T00:41:59.873Z,65.10
2018-04-27T00:44:27.565Z,64.90
2018-04-27T00:46:56.033Z,65.00
2018-04-27T00:49:23.715Z,65.00
2018-04-27T00:51:52.147Z,65.30
2018-04-27T00:54:19.904Z,65.30
2018-04-27T00:56:47.533Z,65.20
2018-04-27T00:59:15.208Z,65.20
2018-04-27T01:01:42.907Z,65.20
2018-04-27T01:04:10.582Z,65.40
2018-04-27T01:06:38.253Z,65.50
2018-04-27T01:09:05.932Z,65.50
2018-04-27T01:11:34.401Z,65.50
2018-04-27T01:14:02.068Z,65.50
2018-04-27T01:16:29.728Z,65.50
2018-04-27T01:18:57.433Z,65.70
2018-04-27T01:21:25.094Z,65.60
2018-04-27T01:23:52.767Z,65.70
2018-04-27T01:26:20.447Z,65.90
2018-04-27T01:28:48.126Z,65.90
2018-04-27T01:31:15.803Z,66.30
2018-04-27T01:33:43.489Z,66.30
2018-04-27T01:36:11.928Z,66.60
2018-04-27T01:38:39.615Z,66.50
2018-04-27T01:41:07.282Z,66.90
2018-04-27T01:43:35.732Z,67.40
2018-04-27T01:46:03.396Z,67.40
2018-04-27T01:48:31.100Z,67.80
2018-04-27T01:50:59.553Z,67.80
2018-04-27T01:53:27.206Z,67.80
2018-04-27T01:55:54.894Z,67.80
2018-04-27T01:58:23.338Z,67.90
2018-04-27T02:00:51.036Z,67.70
2018-04-27T02:03:18.740Z,67.90
2018-04-27T02:05:46.399Z,67.90
2018-04-27T02:08:14.107Z,67.90
2018-04-27T02:10:41.743Z,68.10
2018-04-27T02:13:09.435Z,68.10
2018-04-27T02:15:37.107Z,68.30
2018-04-27T02:18:04.801Z,68.20
2018-04-27T02:20:32.467Z,69.00
2018-04-27T02:23:00.149Z,68.20
2018-04-27T02:25:27.819Z,68.30
2018-04-27T02:27:55.508Z,68.40
2018-04-27T02:30:23.198Z,68.40
2018-04-27T02:32:51.664Z,68.80
2018-04-27T02:35:19.366Z,68.70
2018-04-27T02:37:47.032Z,68.70
2018-04-27T02:40:14.706Z,68.80
2018-04-27T02:42:42.400Z,68.70
2018-04-27T02:45:10.108Z,68.70
2018-04-27T02:47:38.557Z,68.60
2018-04-27T02:50:06.242Z,69.30
2018-04-27T02:52:34.680Z,68.70
2018-04-27T02:55:02.384Z,68.70
2018-04-27T02:57:30.843Z,68.60
2018-04-27T02:59:58.516Z,68.60
2018-04-27T03:02:26.216Z,68.60
2018-04-27T03:04:53.914Z,68.70
2018-04-27T03:07:21.599Z,68.70
2018-04-27T03:09:49.283Z,68.80
2018-04-27T03:12:17.746Z,68.70
2018-04-27T03:14:45.417Z,68.70
2018-04-27T03:17:13.871Z,69.00
2018-04-27T03:19:41.572Z,68.70
2018-04-27T03:22:09.999Z,69.00
2018-04-27T03:24:37.720Z,68.80
2018-04-27T03:27:06.150Z,69.00
2018-04-27T03:29:33.852Z,69.00
2018-04-27T03:32:02.286Z,69.30
2018-04-27T03:34:29.964Z,69.20
2018-04-27T03:36:57.677Z,69.10
2018-04-27T03:39:25.371Z,69.30
2018-04-27T03:41:53.067Z,69.30
2018-04-27T03:44:20.718Z,69.40
2018-04-27T03:46:48.417Z,69.30
2018-04-27T03:49:16.843Z,69.20
2018-04-27T03:51:44.532Z,69.10
2018-04-27T03:54:12.230Z,69.30
2018-04-27T03:56:40.660Z,69.40
2018-04-27T03:59:08.357Z,69.40
2018-04-27T04:01:41.822Z,69.50
2018-04-27T04:04:15.472Z,69.40
2018-04-27T04:06:43.916Z,69.80
2018-04-27T04:09:11.618Z,69.70
2018-04-27T04:11:39.280Z,69.70
2018-04-27T04:14:06.963Z,69.80
2018-04-27T04:16:34.646Z,69.70
2018-04-27T04:19:02.342Z,69.80
2018-04-27T04:21:30.020Z,69.80
2018-04-27T04:23:58.466Z,70.10
2018-04-27T04:26:26.136Z,70.00
2018-04-27T04:28:53.843Z,70.20
2018-04-27T04:31:22.262Z,70.40
2018-04-27T04:33:49.990Z,70.30
2018-04-27T04:36:18.429Z,70.10
2018-04-27T04:38:46.120Z,70.00
2018-04-27T04:41:14.592Z,69.80
2018-04-27T04:43:42.251Z,69.70
2018-04-27T04:46:09.936Z,69.80
2018-04-27T04:48:37.647Z,69.70
2018-04-27T04:51:05.303Z,69.70
2018-04-27T04:53:32.962Z,69.70
2018-04-27T04:56:00.655Z,69.80
2018-04-27T04:58:28.346Z,69.70
2018-04-27T05:00:56.777Z,69.70
2018-04-27T05:03:24.470Z,69.60
2018-04-27T05:05:52.170Z,69.40
2018-04-27T05:08:19.933Z,69.20
2018-04-27T05:10:47.565Z,69.10
2018-04-27T05:13:15.214Z,68.80
2018-04-27T05:15:42.881Z,68.80
2018-04-27T05:18:16.483Z,68.60
2018-04-27T05:20:44.176Z,68.40
2018-04-27T05:23:11.841Z,68.40
2018-04-27T05:25:39.541Z,68.30
2018-04-27T05:28:07.212Z,68.10
2018-04-27T05:30:35.666Z,68.40
2018-04-27T05:33:04.198Z,69.00
2018-04-27T05:35:32.675Z,67.00
2018-04-27T05:38:00.359Z,67.70
2018-04-27T05:40:28.811Z,67.60
2018-04-27T05:42:56.485Z,67.40
2018-04-27T05:45:24.172Z,67.30
2018-04-27T05:47:51.846Z,67.00
2018-04-27T05:50:19.551Z,66.70
2018-04-27T05:52:47.231Z,66.50
2018-04-27T05:55:14.917Z,66.20
2018-04-27T05:57:42.582Z,65.70
2018-04-27T06:00:11.039Z,65.90
2018-04-27T06:02:38.775Z,65.80
2018-04-27T06:05:06.440Z,65.80
2018-04-27T06:07:34.137Z,65.40
2018-04-27T06:10:01.808Z,65.30
2018-04-27T06:12:29.485Z,65.50
2018-04-27T06:14:57.915Z,65.50
2018-04-27T06:17:25.603Z,66.10
2018-04-27T06:19:53.271Z,65.10
2018-04-27T06:22:21.722Z,65.00
2018-04-27T06:24:49.434Z,64.90
2018-04-27T06:27:17.890Z,64.50
2018-04-27T06:29:45.581Z,64.50
2018-04-27T06:32:13.259Z,64.50
2018-04-27T06:34:40.943Z,64.40
2018-04-27T06:37:08.621Z,64.20
2018-04-27T06:39:36.320Z,64.30
2018-04-27T06:42:04.759Z,63.60
2018-04-27T06:44:32.424Z,63.50
2018-04-27T06:47:00.118Z,63.40
2018-04-27T06:49:28.567Z,62.50
2018-04-27T06:51:56.233Z,62.50
2018-04-27T06:54:23.941Z,62.80
2018-04-27T06:56:52.375Z,62.70
2018-04-27T06:59:20.103Z,62.60
2018-04-27T07:01:47.781Z,62.80
2018-04-27T07:04:15.477Z,63.50
2018-04-27T07:06:43.173Z,62.40
2018-04-27T07:09:11.603Z,62.50
2018-04-27T07:11:39.312Z,62.40
2018-04-27T07:14:06.951Z,62.10
2018-04-27T07:16:34.633Z,62.20
2018-04-27T07:19:03.066Z,61.60
2018-04-27T07:21:30.743Z,61.50
2018-04-27T07:23:58.452Z,61.60
2018-04-27T07:26:26.903Z,61.40
2018-04-27T07:28:54.558Z,61.40
2018-04-27T07:31:22.259Z,61.30
2018-04-27T07:33:49.952Z,61.00
2018-04-27T07:36:17.627Z,60.60
2018-04-27T07:38:45.327Z,60.40
2018-04-27T07:41:13.826Z,60.40
2018-04-27T07:43:42.247Z,60.00
2018-04-27T07:46:09.941Z,59.90
2018-04-27T07:48:37.629Z,59.00
2018-04-27T07:51:06.070Z,59.30
2018-04-27T07:53:33.726Z,59.20
2018-04-27T07:56:01.417Z,59.40
2018-04-27T07:58:29.105Z,58.90
2018-04-27T08:00:56.815Z,58.10
2018-04-27T08:03:24.499Z,57.20
2018-04-27T08:05:52.171Z,58.10
2018-04-27T08:08:19.872Z,57.90
2018-04-27T08:10:47.559Z,57.70
2018-04-27T08:13:15.237Z,56.20
2018-04-27T08:15:42.905Z,56.50
2018-04-27T08:18:10.588Z,56.50
2018-04-27T08:20:38.282Z,56.40
2018-04-27T08:23:05.964Z,56.60
2018-04-27T08:25:34.427Z,56.60
2018-04-27T08:28:02.138Z,56.20
2018-04-27T08:30:29.800Z,56.50
2018-04-27T08:32:57.498Z,56.40
2018-04-27T08:35:25.935Z,54.20
2018-04-27T08:37:53.619Z,54.20
2018-04-27T08:40:21.295Z,53.90
2018-04-27T08:42:49.752Z,54.30
2018-04-27T08:45:17.421Z,54.30
2018-04-27T08:47:45.114Z,54.60
2018-04-27T08:50:12.799Z,53.90
2018-04-27T08:52:40.484Z,54.00
2018-04-27T08:55:08.170Z,54.50
2018-04-27T08:57:35.860Z,55.00
2018-04-27T09:00:04.338Z,54.10
2018-04-27T09:02:32.804Z,54.00
2018-04-27T09:05:00.484Z,53.90
2018-04-27T09:07:28.942Z,52.90
2018-04-27T09:09:56.622Z,52.90
2018-04-27T09:12:24.303Z,52.10
2018-04-27T09:14:52.756Z,53.00
2018-04-27T09:17:20.468Z,53.00
2018-04-27T09:19:48.177Z,53.60
2018-04-27T09:22:15.845Z,54.20
2018-04-27T09:24:43.552Z,53.90
2018-04-27T09:27:11.216Z,51.90
2018-04-27T09:29:38.973Z,52.10
2018-04-27T09:32:06.641Z,52.30
2018-04-27T09:34:34.339Z,52.80
2018-04-27T09:37:02.007Z,52.30
2018-04-27T09:39:29.672Z,50.50
2018-04-27T09:41:57.373Z,51.10
2018-04-27T09:44:25.794Z,49.70
2018-04-27T09:46:53.521Z,49.70
2018-04-27T09:49:21.977Z,48.10
2018-04-27T09:51:49.667Z,48.10
2018-04-27T09:54:17.328Z,48.00
2018-04-27T09:56:45.021Z,47.60
2018-04-27T09:59:12.695Z,47.50
2018-04-27T10:01:40.380Z,48.10
2018-04-27T10:04:08.132Z,48.10
2018-04-27T10:06:35.782Z,48.00
2018-04-27T10:09:03.448Z,48.50
2018-04-27T10:11:31.135Z,46.60
2018-04-27T10:13:58.798Z,45.30
2018-04-27T10:16:26.491Z,46.30
2018-04-27T10:18:54.175Z,47.10
2018-04-27T10:21:22.760Z,48.00
2018-04-27T10:23:50.427Z,46.50
2018-04-27T10:26:21.052Z,45.40
2018-04-27T10:28:48.715Z,45.70
2018-04-27T10:31:16.395Z,46.90
2018-04-27T10:33:44.091Z,46.80
2018-04-27T10:36:11.776Z,46.40
2018-04-27T10:38:40.217Z,47.00
2018-04-27T10:41:08.756Z,45.00
2018-04-27T10:43:36.463Z,44.90
2018-04-27T10:46:04.142Z,42.50
2018-04-27T10:48:31.840Z,42.80
2018-04-27T10:50:59.502Z,42.60
2018-04-27T10:53:27.207Z,42.30
2018-04-27T10:55:54.883Z,42.50
2018-04-27T10:58:22.563Z,43.10
2018-04-27T11:00:50.290Z,42.90
2018-04-27T11:03:18.035Z,43.30
2018-04-27T11:05:45.644Z,43.80
2018-04-27T11:08:13.324Z,43.40
2018-04-27T11:10:41.750Z,43.10
2018-04-27T11:13:09.440Z,43.00
2018-04-27T11:15:37.107Z,43.50
2018-04-27T11:18:04.790Z,43.60
2018-04-27T11:20:33.224Z,44.60
2018-04-27T11:23:00.910Z,44.60
2018-04-27T11:25:28.571Z,43.60
2018-04-27T11:27:56.230Z,44.20
2018-04-27T11:30:23.923Z,42.70
2018-04-27T11:32:52.372Z,43.60
2018-04-27T11:35:20.115Z,43.60
2018-04-27T11:37:47.793Z,43.30
2018-04-27T11:40:15.471Z,42.10
2018-04-27T11:42:43.166Z,42.10
2018-04-27T11:45:11.617Z,42.00
2018-04-27T11:47:39.321Z,41.90
2018-04-27T11:50:07.760Z,41.50
2018-04-27T11:52:36.188Z,41.40
2018-04-27T11:55:03.876Z,42.00
2018-04-27T11:57:31.543Z,41.20
2018-04-27T11:59:59.243Z,42.00
2018-04-27T12:02:26.912Z,42.60
2018-04-27T12:04:55.379Z,43.90
2018-04-27T12:07:23.036Z,43.30
2018-04-27T12:09:50.715Z,43.00
2018-04-27T12:12:18.395Z,42.30
2018-04-27T12:14:46.848Z,41.80
2018-04-27T12:17:14.516Z,41.70
2018-04-27T12:19:42.199Z,42.40
2018-04-27T12:22:10.651Z,42.60
2018-04-27T12:24:38.315Z,42.60
2018-04-27T12:27:06.004Z,43.20
2018-04-27T12:29:34.434Z,41.80
2018-04-27T12:32:02.127Z,41.70
2018-04-27T12:34:29.819Z,42.30
2018-04-27T12:36:57.550Z,42.80
2018-04-27T12:39:25.204Z,41.80
2018-04-27T12:41:52.862Z,41.40
2018-04-27T12:44:20.556Z,41.00
2018-04-27T12:46:48.995Z,41.40
2018-04-27T12:49:16.691Z,41.40
2018-04-27T12:51:44.423Z,40.60
2018-04-27T12:54:12.062Z,40.90
2018-04-27T12:56:39.819Z,40.70
2018-04-27T12:59:07.499Z,40.40
2018-04-27T13:01:35.196Z,39.70
2018-04-27T13:04:02.914Z,38.90
2018-04-27T13:06:30.591Z,39.70
2018-04-27T13:08:58.259Z,39.70
2018-04-27T13:11:25.982Z,39.90
2018-04-27T13:13:54.430Z,38.40
2018-04-27T13:16:22.128Z,38.40
2018-04-27T13:18:49.843Z,39.30
2018-04-27T13:21:17.511Z,39.10
2018-04-27T13:23:45.212Z,39.60
2018-04-27T13:26:13.637Z,40.10
2018-04-27T13:28:41.323Z,40.10
2018-04-27T13:31:08.983Z,40.60
2018-04-27T13:33:36.667Z,40.00
2018-04-27T13:36:05.132Z,39.60
2018-04-27T13:38:32.810Z,39.60
2018-04-27T13:41:01.248Z,39.60
2018-04-27T13:43:28.927Z,39.60
2018-04-27T13:45:57.388Z,39.20
2018-04-27T13:48:25.060Z,38.50
2018-04-27T13:50:52.741Z,38.40
2018-04-27T13:53:20.419Z,37.00
2018-04-27T13:55:48.108Z,37.20
2018-04-27T13:58:16.540Z,37.30
2018-04-27T14:00:44.225Z,37.20
2018-04-27T14:03:11.916Z,38.10
2018-04-27T14:05:39.630Z,38.00
2018-04-27T14:08:07.281Z,36.90
2018-04-27T14:10:34.981Z,38.00
2018-04-27T14:13:02.642Z,37.80
2018-04-27T14:15:31.079Z,36.70
2018-04-27T14:18:01.498Z,36.70
2018-04-27T14:20:29.190Z,37.80
2018-04-27T14:22:56.864Z,38.40
2018-04-27T14:25:24.528Z,38.60
2018-04-27T14:27:52.203Z,38.50
2018-04-27T14:30:20.642Z,39.20
2018-04-27T14:32:48.311Z,39.10
2018-04-27T14:35:15.999Z,38.30
2018-04-27T14:37:43.658Z,37.90
2018-04-27T14:40:11.348Z,37.40
2018-04-27T14:42:39.810Z,38.20
2018-04-27T14:45:07.495Z,38.20
2018-04-27T14:47:35.166Z,38.60
2018-04-27T14:50:02.867Z,38.40
2018-04-27T14:52:30.541Z,38.70
2018-04-27T14:54:58.204Z,38.60
2018-04-27T14:57:25.912Z,37.70
2018-04-27T14:59:53.617Z,37.70
2018-04-27T15:02:21.302Z,38.30
2018-04-27T15:04:48.962Z,37.60
2018-04-27T15:07:16.676Z,37.90
2018-04-27T15:09:44.343Z,38.50
2018-04-27T15:12:12.081Z,38.70
2018-04-27T15:14:39.707Z,38.10
2018-04-27T15:17:07.373Z,37.10
2018-04-27T15:19:35.077Z,37.70
2018-04-27T15:22:03.498Z,38.70
2018-04-27T15:24:31.964Z,38.20
2018-04-27T15:26:59.652Z,38.10
2018-04-27T15:29:27.335Z,37.80
2018-04-27T15:31:55.016Z,37.60
2018-04-27T15:34:23.476Z,37.00
2018-04-27T15:36:51.148Z,37.00
2018-04-27T15:39:18.902Z,37.60
2018-04-27T15:41:46.536Z,37.80
2018-04-27T15:44:14.218Z,38.00
2018-04-27T15:46:41.895Z,38.30
2018-04-27T15:49:09.593Z,37.60
2018-04-27T15:51:37.254Z,37.70
2018-04-27T15:54:04.963Z,38.30
2018-04-27T15:56:32.653Z,38.20
2018-04-27T15:59:00.327Z,38.30
2018-04-27T16:01:28.759Z,38.70
2018-04-27T16:03:56.447Z,38.60
2018-04-27T16:06:24.108Z,38.80
2018-04-27T16:08:51.776Z,38.60
2018-04-27T16:11:19.473Z,38.80
2018-04-27T16:13:57.727Z,38.70
2018-04-27T16:16:25.423Z,38.70
2018-04-27T16:18:54.763Z,38.80
2018-04-27T16:21:22.488Z,38.70
2018-04-27T16:23:50.127Z,39.00
2018-04-27T16:26:17.795Z,38.60
2018-04-27T16:28:45.479Z,38.70
2018-04-27T16:31:13.901Z,38.70
2018-04-27T16:33:41.598Z,38.60
2018-04-27T16:36:09.276Z,39.20
2018-04-27T16:38:36.976Z,38.70
2018-04-27T16:41:04.670Z,38.90
2018-04-27T16:43:32.352Z,39.30
2018-04-27T16:46:00.049Z,40.00
2018-04-27T16:48:28.546Z,38.70
2018-04-27T16:50:56.182Z,38.70
2018-04-27T16:53:24.622Z,39.20
2018-04-27T16:55:52.329Z,39.20
2018-04-27T16:58:20.795Z,38.50
2018-04-27T17:00:48.493Z,38.50
2018-04-27T17:03:16.170Z,38.60
2018-04-27T17:05:43.834Z,38.40
2018-04-27T17:08:11.491Z,38.60
2018-04-27T17:10:39.180Z,38.20
2018-04-27T17:13:06.838Z,38.40
2018-04-27T17:15:34.543Z,38.20
2018-04-27T17:18:02.971Z,38.90
2018-04-27T17:20:30.671Z,38.80
2018-04-27T17:22:58.336Z,39.10
2018-04-27T17:25:26.018Z,38.80
2018-04-27T17:27:54.501Z,39.60
2018-04-27T17:30:22.946Z,38.90
2018-04-27T17:32:50.631Z,38.90
2018-04-27T17:35:18.342Z,38.90
2018-04-27T17:37:46.793Z,38.60
2018-04-27T17:40:15.229Z,38.70
2018-04-27T17:42:42.912Z,38.60
2018-04-27T17:45:10.582Z,38.70
2018-04-27T17:47:38.280Z,38.60
2018-04-27T17:50:05.939Z,37.90
2018-04-27T17:52:33.624Z,38.50
2018-04-27T17:55:01.298Z,38.70
2018-04-27T17:57:28.992Z,39.00
2018-04-27T17:59:56.681Z,39.20
2018-04-27T18:02:24.369Z,39.50
2018-04-27T18:04:52.035Z,40.10
2018-04-27T18:07:19.714Z,40.30
2018-04-27T18:09:47.447Z,40.40
2018-04-27T18:12:15.283Z,40.90
2018-04-27T18:14:42.845Z,41.20
2018-04-27T18:17:11.290Z,41.50
2018-04-27T18:19:38.991Z,41.50
2018-04-27T18:22:07.476Z,42.00
2018-04-27T18:24:35.969Z,42.30
2018-04-27T18:27:04.419Z,42.60
2018-04-27T18:29:32.080Z,42.60
2018-04-27T18:32:00.600Z,42.70
2018-04-27T18:34:28.288Z,42.90
2018-04-27T18:36:56.046Z,43.00
2018-04-27T18:39:23.734Z,43.10
2018-04-27T18:41:51.455Z,43.30
2018-04-27T18:44:19.135Z,43.50
2018-04-27T18:46:46.794Z,43.60
2018-04-27T18:49:14.492Z,43.90
2018-04-27T18:51:42.165Z,44.10
2018-04-27T18:54:09.853Z,44.70
2018-04-27T18:56:38.307Z,44.90
2018-04-27T18:59:05.974Z,44.90
2018-04-27T19:01:33.650Z,45.00
2018-04-27T19:04:02.089Z,45.00
2018-04-27T19:06:29.767Z,44.90
2018-04-27T19:08:57.546Z,45.10
2018-04-27T19:11:25.117Z,45.30
2018-04-27T19:13:52.803Z,45.60
2018-04-27T19:16:20.471Z,46.10
2018-04-27T19:18:48.165Z,46.20
2018-04-27T19:21:18.620Z,46.60
2018-04-27T19:23:46.317Z,46.60
2018-04-27T19:26:14.748Z,46.70
2018-04-27T19:28:42.435Z,46.70
2018-04-27T19:31:10.146Z,46.80
2018-04-27T19:33:37.893Z,46.90
2018-04-27T19:36:05.573Z,47.20
2018-04-27T19:38:33.263Z,47.30
2018-04-27T19:41:00.928Z,47.50
2018-04-27T19:43:29.406Z,47.30
2018-04-27T19:45:57.070Z,48.00
2018-04-27T19:48:24.784Z,47.50
2018-04-27T19:50:54.089Z,47.80
2018-04-27T19:53:21.705Z,47.80
2018-04-27T19:55:49.397Z,48.00
2018-04-27T19:58:17.859Z,48.40
2018-04-27T20:00:45.563Z,47.70
2018-04-27T20:03:13.242Z,49.00
2018-04-27T20:05:43.597Z,48.50
2018-04-27T20:08:11.287Z,48.70
2018-04-27T20:10:40.554Z,48.90
2018-04-27T20:13:12.134Z,48.90
2018-04-27T20:15:40.533Z,49.10
2018-04-27T20:18:10.740Z,49.30
2018-04-27T20:20:38.415Z,49.30
2018-04-27T20:23:08.011Z,49.50
2018-04-27T20:25:35.696Z,49.50
2018-04-27T20:28:04.951Z,49.60
2018-04-27T20:30:32.648Z,49.60
2018-04-27T20:33:01.973Z,49.80
2018-04-27T20:35:29.648Z,49.80
2018-04-27T20:38:01.269Z,50.00
2018-04-27T20:40:28.941Z,50.20
2018-04-27T20:42:57.376Z,50.50
2018-04-27T20:45:25.058Z,50.40
2018-04-27T20:47:52.740Z,50.50
2018-04-27T20:50:23.000Z,50.80
2018-04-27T20:52:50.692Z,50.80
2018-04-27T20:55:18.361Z,51.00
2018-04-27T20:57:46.026Z,51.00
2018-04-27T21:00:13.720Z,51.10
2018-04-27T21:02:42.302Z,51.20
2018-04-27T21:05:10.748Z,51.70
2018-04-27T21:07:38.458Z,51.60
2018-04-27T21:10:06.148Z,51.70
2018-04-27T21:12:33.826Z,51.60
2018-04-27T21:15:02.340Z,51.90
2018-04-27T21:17:29.995Z,51.80
2018-04-27T21:19:57.676Z,51.80
2018-04-27T21:22:26.132Z,52.80
2018-04-27T21:24:53.834Z,52.00
2018-04-27T21:27:21.486Z,52.10
2018-04-27T21:29:49.922Z,52.20
2018-04-27T21:32:17.588Z,52.20
2018-04-27T21:34:45.310Z,52.40
2018-04-27T21:37:12.970Z,52.40
2018-04-27T21:39:40.659Z,52.50
2018-04-27T21:42:15.060Z,52.60
2018-04-27T21:44:43.498Z,52.60
2018-04-27T21:47:16.964Z,52.60
2018-04-27T21:49:44.655Z,52.80
2018-04-27T21:52:12.318Z,52.90
2018-04-27T21:54:39.986Z,52.80
2018-04-27T21:57:08.473Z,52.90
2018-04-27T21:59:41.942Z,52.90
2018-04-27T22:02:10.383Z,52.80
2018-04-27T22:04:38.076Z,52.90
2018-04-27T22:07:05.747Z,52.90
2018-04-27T22:09:39.236Z,52.90
2018-04-27T22:12:06.895Z,52.90
2018-04-27T22:14:34.619Z,53.10
2018-04-27T22:17:09.003Z,53.20
2018-04-27T22:19:36.873Z,53.10
2018-04-27T22:22:04.507Z,53.40
2018-04-27T22:24:32.189Z,53.50
2018-04-27T22:27:05.700Z,53.60
2018-04-27T22:29:33.363Z,53.90
2018-04-27T22:32:07.056Z,54.10
2018-04-27T22:34:37.475Z,54.50
2018-04-27T22:37:05.159Z,54.30
2018-04-27T22:39:38.736Z,54.40
2018-04-27T22:42:07.290Z,54.50
2018-04-27T22:44:41.735Z,54.40
2018-04-27T22:47:11.292Z,54.60
2018-04-27T22:49:39.748Z,55.50
2018-04-27T22:52:07.444Z,55.40
2018-04-27T22:54:36.753Z,55.10
2018-04-27T22:57:10.250Z,55.00
2018-04-27T22:59:38.666Z,55.10
2018-04-27T23:02:12.229Z,55.10
2018-04-27T23:04:40.642Z,55.20
2018-04-27T23:07:08.335Z,55.10
2018-04-27T23:09:35.996Z,55.30
2018-04-27T23:12:03.684Z,55.40
2018-04-27T23:14:35.928Z,55.80
2018-04-27T23:17:03.602Z,55.70
2018-04-27T23:19:35.049Z,55.80
2018-04-27T23:22:04.678Z,56.00
2018-04-27T23:24:33.121Z,55.90
2018-04-27T23:27:00.856Z,55.80
2018-04-27T23:29:28.522Z,55.90
2018-04-27T23:31:56.212Z,56.10
2018-04-27T23:34:23.870Z,56.10
2018-04-27T23:36:53.450Z,56.20
2018-04-27T23:39:21.119Z,56.10
2018-04-27T23:41:48.819Z,56.60
2018-04-27T23:44:16.485Z,56.50
2018-04-27T23:46:44.163Z,56.80
2018-04-27T23:49:12.648Z,56.80
2018-04-27T23:51:41.075Z,56.80
2018-04-27T23:54:09.547Z,56.80
2018-04-27T23:56:37.240Z,56.80
2018-04-27T23:59:04.938Z,56.90
